sensor_id;sensor_type;location;lat;lon;timestamp;P1;durP1;ratioP1;P2;durP2;ratioP2
23716;SDS011;22094;52.130;5.598;2023-07-16T00:00:46;6.90;;;2.33;;
23716;SDS011;22094;52.130;5.598;2023-07-16T00:03:12;6.70;;;2.50;;
23716;SDS011;22094;52.130;5.598;2023-07-16T00:05:39;9.70;;;2.20;;
23716;SDS011;22094;52.130;5.598;2023-07-16T00:08:04;8.55;;;2.45;;
23716;SDS011;22094;52.130;5.598;2023-07-16T00:10:33;7.28;;;2.30;;
23716;SDS011;22094;52.130;5.598;2023-07-16T00:13:02;7.38;;;2.58;;
23716;SDS011;22094;52.130;5.598;2023-07-16T00:15:29;14.18;;;2.28;;
23716;SDS011;22094;52.130;5.598;2023-07-16T00:17:55;7.65;;;2.60;;
23716;SDS011;22094;52.130;5.598;2023-07-16T00:20:21;11.85;;;2.65;;
23716;SDS011;22094;52.130;5.598;2023-07-16T00:22:49;8.15;;;2.88;;
23716;SDS011;22094;52.130;5.598;2023-07-16T00:25:15;9.80;;;2.83;;
23716;SDS011;22094;52.130;5.598;2023-07-16T00:27:40;6.30;;;2.50;;
23716;SDS011;22094;52.130;5.598;2023-07-16T00:30:06;9.02;;;2.72;;
23716;SDS011;22094;52.130;5.598;2023-07-16T00:32:33;9.73;;;2.70;;
23716;SDS011;22094;52.130;5.598;2023-07-16T00:34:59;9.52;;;2.85;;
23716;SDS011;22094;52.130;5.598;2023-07-16T00:37:26;7.00;;;2.80;;
23716;SDS011;22094;52.130;5.598;2023-07-16T00:39:52;12.25;;;2.75;;
23716;SDS011;22094;52.130;5.598;2023-07-16T00:42:17;9.20;;;2.70;;
23716;SDS011;22094;52.130;5.598;2023-07-16T00:44:43;8.85;;;2.42;;
23716;SDS011;22094;52.130;5.598;2023-07-16T00:47:08;6.13;;;2.50;;
23716;SDS011;22094;52.130;5.598;2023-07-16T00:49:35;7.95;;;2.47;;
23716;SDS011;22094;52.130;5.598;2023-07-16T00:52:02;6.00;;;2.55;;
23716;SDS011;22094;52.130;5.598;2023-07-16T00:54:29;9.65;;;2.47;;
23716;SDS011;22094;52.130;5.598;2023-07-16T00:56:56;7.50;;;2.47;;
23716;SDS011;22094;52.130;5.598;2023-07-16T00:59:21;7.25;;;2.85;;
23716;SDS011;22094;52.130;5.598;2023-07-16T01:01:47;6.97;;;2.58;;
23716;SDS011;22094;52.130;5.598;2023-07-16T01:04:13;5.07;;;2.55;;
23716;SDS011;22094;52.130;5.598;2023-07-16T01:06:43;5.35;;;2.65;;
23716;SDS011;22094;52.130;5.598;2023-07-16T01:09:15;8.57;;;2.90;;
23716;SDS011;22094;52.130;5.598;2023-07-16T01:11:42;6.38;;;2.65;;
23716;SDS011;22094;52.130;5.598;2023-07-16T01:14:11;8.23;;;2.88;;
23716;SDS011;22094;52.130;5.598;2023-07-16T01:16:38;9.70;;;2.58;;
23716;SDS011;22094;52.130;5.598;2023-07-16T01:19:05;6.80;;;3.00;;
23716;SDS011;22094;52.130;5.598;2023-07-16T01:21:33;8.02;;;2.85;;
23716;SDS011;22094;52.130;5.598;2023-07-16T01:24:43;9.88;;;2.90;;
23716;SDS011;22094;52.130;5.598;2023-07-16T01:27:21;7.43;;;3.00;;
23716;SDS011;22094;52.130;5.598;2023-07-16T01:30:02;7.43;;;3.20;;
23716;SDS011;22094;52.130;5.598;2023-07-16T01:32:30;11.30;;;3.13;;
23716;SDS011;22094;52.130;5.598;2023-07-16T01:35:09;8.25;;;3.00;;
23716;SDS011;22094;52.130;5.598;2023-07-16T01:37:35;9.38;;;2.60;;
23716;SDS011;22094;52.130;5.598;2023-07-16T01:40:02;8.98;;;3.20;;
23716;SDS011;22094;52.130;5.598;2023-07-16T01:42:29;8.95;;;3.63;;
23716;SDS011;22094;52.130;5.598;2023-07-16T01:44:54;12.68;;;3.50;;
23716;SDS011;22094;52.130;5.598;2023-07-16T01:50:12;7.97;;;3.15;;
23716;SDS011;22094;52.130;5.598;2023-07-16T01:52:38;7.22;;;2.67;;
23716;SDS011;22094;52.130;5.598;2023-07-16T01:55:04;8.85;;;3.10;;
23716;SDS011;22094;52.130;5.598;2023-07-16T01:57:30;10.15;;;3.15;;
23716;SDS011;22094;52.130;5.598;2023-07-16T01:59:56;8.52;;;2.67;;
23716;SDS011;22094;52.130;5.598;2023-07-16T02:02:21;12.38;;;3.60;;
23716;SDS011;22094;52.130;5.598;2023-07-16T02:04:47;11.07;;;3.20;;
23716;SDS011;22094;52.130;5.598;2023-07-16T02:07:13;9.05;;;3.65;;
23716;SDS011;22094;52.130;5.598;2023-07-16T02:09:38;11.18;;;3.50;;
23716;SDS011;22094;52.130;5.598;2023-07-16T02:12:05;10.75;;;3.75;;
23716;SDS011;22094;52.130;5.598;2023-07-16T02:14:31;8.20;;;3.83;;
23716;SDS011;22094;52.130;5.598;2023-07-16T02:16:57;9.82;;;3.95;;
23716;SDS011;22094;52.130;5.598;2023-07-16T02:19:22;9.52;;;3.85;;
23716;SDS011;22094;52.130;5.598;2023-07-16T02:21:50;11.68;;;4.55;;
23716;SDS011;22094;52.130;5.598;2023-07-16T02:24:16;9.32;;;3.67;;
23716;SDS011;22094;52.130;5.598;2023-07-16T02:26:41;13.57;;;4.35;;
23716;SDS011;22094;52.130;5.598;2023-07-16T02:29:07;8.82;;;3.97;;
23716;SDS011;22094;52.130;5.598;2023-07-16T02:31:34;17.13;;;4.50;;
23716;SDS011;22094;52.130;5.598;2023-07-16T02:34:00;9.82;;;3.85;;
23716;SDS011;22094;52.130;5.598;2023-07-16T02:36:25;8.60;;;3.95;;
23716;SDS011;22094;52.130;5.598;2023-07-16T02:38:51;10.02;;;3.90;;
23716;SDS011;22094;52.130;5.598;2023-07-16T02:41:16;9.43;;;3.90;;
23716;SDS011;22094;52.130;5.598;2023-07-16T02:43:42;9.10;;;4.05;;
23716;SDS011;22094;52.130;5.598;2023-07-16T02:46:10;13.93;;;4.78;;
23716;SDS011;22094;52.130;5.598;2023-07-16T02:48:36;11.30;;;3.80;;
23716;SDS011;22094;52.130;5.598;2023-07-16T02:51:01;13.95;;;4.13;;
23716;SDS011;22094;52.130;5.598;2023-07-16T02:53:27;9.15;;;3.83;;
23716;SDS011;22094;52.130;5.598;2023-07-16T02:55:52;10.68;;;4.00;;
23716;SDS011;22094;52.130;5.598;2023-07-16T02:58:18;10.77;;;3.60;;
23716;SDS011;22094;52.130;5.598;2023-07-16T03:00:44;8.88;;;3.63;;
23716;SDS011;22094;52.130;5.598;2023-07-16T03:03:09;12.35;;;4.22;;
23716;SDS011;22094;52.130;5.598;2023-07-16T03:05:35;13.52;;;3.97;;
23716;SDS011;22094;52.130;5.598;2023-07-16T03:08:01;8.45;;;3.60;;
23716;SDS011;22094;52.130;5.598;2023-07-16T03:10:26;6.68;;;3.38;;
23716;SDS011;22094;52.130;5.598;2023-07-16T03:12:52;12.88;;;4.20;;
23716;SDS011;22094;52.130;5.598;2023-07-16T03:15:18;12.95;;;3.90;;
23716;SDS011;22094;52.130;5.598;2023-07-16T03:17:44;8.30;;;3.40;;
23716;SDS011;22094;52.130;5.598;2023-07-16T03:20:10;9.85;;;4.38;;
23716;SDS011;22094;52.130;5.598;2023-07-16T03:22:36;11.32;;;4.13;;
23716;SDS011;22094;52.130;5.598;2023-07-16T03:25:02;8.32;;;4.20;;
23716;SDS011;22094;52.130;5.598;2023-07-16T03:27:28;9.10;;;4.40;;
23716;SDS011;22094;52.130;5.598;2023-07-16T03:29:54;13.25;;;4.10;;
23716;SDS011;22094;52.130;5.598;2023-07-16T03:32:19;11.18;;;4.30;;
23716;SDS011;22094;52.130;5.598;2023-07-16T03:34:45;12.82;;;4.20;;
23716;SDS011;22094;52.130;5.598;2023-07-16T03:37:10;8.25;;;4.18;;
23716;SDS011;22094;52.130;5.598;2023-07-16T03:39:36;9.57;;;3.83;;
23716;SDS011;22094;52.130;5.598;2023-07-16T03:42:02;10.02;;;4.53;;
23716;SDS011;22094;52.130;5.598;2023-07-16T03:44:28;11.13;;;4.20;;
23716;SDS011;22094;52.130;5.598;2023-07-16T03:46:54;9.10;;;3.58;;
23716;SDS011;22094;52.130;5.598;2023-07-16T03:49:20;8.23;;;3.75;;
23716;SDS011;22094;52.130;5.598;2023-07-16T03:51:45;8.15;;;3.63;;
23716;SDS011;22094;52.130;5.598;2023-07-16T03:54:11;12.55;;;3.65;;
23716;SDS011;22094;52.130;5.598;2023-07-16T03:56:37;8.85;;;3.78;;
23716;SDS011;22094;52.130;5.598;2023-07-16T03:59:02;16.75;;;3.78;;
23716;SDS011;22094;52.130;5.598;2023-07-16T04:01:28;11.10;;;3.63;;
23716;SDS011;22094;52.130;5.598;2023-07-16T04:03:54;12.40;;;3.80;;
23716;SDS011;22094;52.130;5.598;2023-07-16T04:06:19;13.48;;;3.60;;
23716;SDS011;22094;52.130;5.598;2023-07-16T04:08:45;10.30;;;3.92;;
23716;SDS011;22094;52.130;5.598;2023-07-16T04:11:11;7.57;;;3.53;;
23716;SDS011;22094;52.130;5.598;2023-07-16T04:13:36;12.23;;;3.58;;
23716;SDS011;22094;52.130;5.598;2023-07-16T04:16:02;9.25;;;3.88;;
23716;SDS011;22094;52.130;5.598;2023-07-16T04:18:28;11.80;;;4.20;;
23716;SDS011;22094;52.130;5.598;2023-07-16T04:20:54;13.65;;;4.55;;
23716;SDS011;22094;52.130;5.598;2023-07-16T04:23:19;13.15;;;4.13;;
23716;SDS011;22094;52.130;5.598;2023-07-16T04:25:45;9.93;;;3.63;;
23716;SDS011;22094;52.130;5.598;2023-07-16T04:28:11;12.82;;;4.50;;
23716;SDS011;22094;52.130;5.598;2023-07-16T04:30:37;11.93;;;4.15;;
23716;SDS011;22094;52.130;5.598;2023-07-16T04:33:03;8.60;;;3.83;;
23716;SDS011;22094;52.130;5.598;2023-07-16T04:35:29;12.27;;;4.20;;
23716;SDS011;22094;52.130;5.598;2023-07-16T04:37:55;9.05;;;4.10;;
23716;SDS011;22094;52.130;5.598;2023-07-16T04:40:20;8.85;;;3.97;;
23716;SDS011;22094;52.130;5.598;2023-07-16T04:42:46;9.43;;;4.72;;
23716;SDS011;22094;52.130;5.598;2023-07-16T04:45:12;8.65;;;4.00;;
23716;SDS011;22094;52.130;5.598;2023-07-16T04:47:37;8.27;;;3.72;;
23716;SDS011;22094;52.130;5.598;2023-07-16T04:50:03;9.43;;;4.07;;
23716;SDS011;22094;52.130;5.598;2023-07-16T04:52:29;10.10;;;4.30;;
23716;SDS011;22094;52.130;5.598;2023-07-16T04:54:55;12.93;;;4.05;;
23716;SDS011;22094;52.130;5.598;2023-07-16T04:57:21;7.63;;;4.10;;
23716;SDS011;22094;52.130;5.598;2023-07-16T04:59:47;9.65;;;3.70;;
23716;SDS011;22094;52.130;5.598;2023-07-16T05:02:12;8.65;;;3.53;;
23716;SDS011;22094;52.130;5.598;2023-07-16T05:04:40;9.68;;;3.58;;
23716;SDS011;22094;52.130;5.598;2023-07-16T05:07:06;6.88;;;3.60;;
23716;SDS011;22094;52.130;5.598;2023-07-16T05:09:31;7.72;;;3.60;;
23716;SDS011;22094;52.130;5.598;2023-07-16T05:11:57;8.07;;;3.80;;
23716;SDS011;22094;52.130;5.598;2023-07-16T05:14:25;10.75;;;4.32;;
23716;SDS011;22094;52.130;5.598;2023-07-16T05:16:52;7.47;;;4.30;;
23716;SDS011;22094;52.130;5.598;2023-07-16T05:19:17;8.52;;;3.90;;
23716;SDS011;22094;52.130;5.598;2023-07-16T05:21:43;6.03;;;3.80;;
23716;SDS011;22094;52.130;5.598;2023-07-16T05:24:08;7.90;;;4.00;;
23716;SDS011;22094;52.130;5.598;2023-07-16T05:26:34;7.90;;;4.10;;
23716;SDS011;22094;52.130;5.598;2023-07-16T05:29:00;9.10;;;4.25;;
23716;SDS011;22094;52.130;5.598;2023-07-16T05:31:25;10.27;;;4.30;;
23716;SDS011;22094;52.130;5.598;2023-07-16T05:33:51;8.70;;;4.00;;
23716;SDS011;22094;52.130;5.598;2023-07-16T05:36:16;8.85;;;4.15;;
23716;SDS011;22094;52.130;5.598;2023-07-16T05:38:42;10.27;;;4.63;;
23716;SDS011;22094;52.130;5.598;2023-07-16T05:41:07;7.78;;;4.20;;
23716;SDS011;22094;52.130;5.598;2023-07-16T05:43:33;9.35;;;4.32;;
23716;SDS011;22094;52.130;5.598;2023-07-16T05:45:59;7.80;;;4.00;;
23716;SDS011;22094;52.130;5.598;2023-07-16T05:48:24;8.65;;;3.92;;
23716;SDS011;22094;52.130;5.598;2023-07-16T05:50:50;9.45;;;4.10;;
23716;SDS011;22094;52.130;5.598;2023-07-16T05:53:16;6.18;;;4.40;;
23716;SDS011;22094;52.130;5.598;2023-07-16T05:55:42;10.38;;;4.53;;
23716;SDS011;22094;52.130;5.598;2023-07-16T05:58:08;10.57;;;4.40;;
23716;SDS011;22094;52.130;5.598;2023-07-16T06:00:34;8.48;;;4.93;;
23716;SDS011;22094;52.130;5.598;2023-07-16T06:03:00;7.57;;;4.03;;
23716;SDS011;22094;52.130;5.598;2023-07-16T06:05:27;11.70;;;4.57;;
23716;SDS011;22094;52.130;5.598;2023-07-16T06:07:57;8.88;;;4.40;;
23716;SDS011;22094;52.130;5.598;2023-07-16T06:10:23;7.95;;;4.53;;
23716;SDS011;22094;52.130;5.598;2023-07-16T06:12:48;8.80;;;4.30;;
23716;SDS011;22094;52.130;5.598;2023-07-16T06:15:14;6.68;;;4.45;;
23716;SDS011;22094;52.130;5.598;2023-07-16T06:17:39;8.30;;;4.43;;
23716;SDS011;22094;52.130;5.598;2023-07-16T06:20:05;8.48;;;4.13;;
23716;SDS011;22094;52.130;5.598;2023-07-16T06:22:32;9.88;;;5.30;;
23716;SDS011;22094;52.130;5.598;2023-07-16T06:24:58;8.55;;;4.68;;
23716;SDS011;22094;52.130;5.598;2023-07-16T06:27:24;10.05;;;4.72;;
23716;SDS011;22094;52.130;5.598;2023-07-16T06:29:50;6.45;;;4.38;;
23716;SDS011;22094;52.130;5.598;2023-07-16T06:32:16;9.45;;;4.75;;
23716;SDS011;22094;52.130;5.598;2023-07-16T06:34:41;14.25;;;4.68;;
23716;SDS011;22094;52.130;5.598;2023-07-16T06:37:07;9.13;;;4.53;;
23716;SDS011;22094;52.130;5.598;2023-07-16T06:39:33;10.45;;;5.00;;
23716;SDS011;22094;52.130;5.598;2023-07-16T06:41:59;7.18;;;4.55;;
23716;SDS011;22094;52.130;5.598;2023-07-16T06:44:25;8.88;;;4.78;;
23716;SDS011;22094;52.130;5.598;2023-07-16T06:46:51;6.97;;;4.60;;
23716;SDS011;22094;52.130;5.598;2023-07-16T06:49:17;8.60;;;4.70;;
23716;SDS011;22094;52.130;5.598;2023-07-16T06:51:43;7.00;;;4.30;;
23716;SDS011;22094;52.130;5.598;2023-07-16T06:54:09;9.55;;;4.78;;
23716;SDS011;22094;52.130;5.598;2023-07-16T06:56:35;7.72;;;4.25;;
23716;SDS011;22094;52.130;5.598;2023-07-16T06:59:01;12.45;;;4.38;;
23716;SDS011;22094;52.130;5.598;2023-07-16T07:01:27;12.23;;;5.10;;
23716;SDS011;22094;52.130;5.598;2023-07-16T07:03:54;6.80;;;4.50;;
23716;SDS011;22094;52.130;5.598;2023-07-16T07:06:20;8.30;;;4.60;;
23716;SDS011;22094;52.130;5.598;2023-07-16T07:08:46;10.18;;;4.75;;
23716;SDS011;22094;52.130;5.598;2023-07-16T07:11:12;8.73;;;4.35;;
23716;SDS011;22094;52.130;5.598;2023-07-16T07:13:38;6.22;;;4.38;;
23716;SDS011;22094;52.130;5.598;2023-07-16T07:16:04;12.48;;;4.75;;
23716;SDS011;22094;52.130;5.598;2023-07-16T07:18:30;10.48;;;4.53;;
23716;SDS011;22094;52.130;5.598;2023-07-16T07:20:55;13.32;;;4.78;;
23716;SDS011;22094;52.130;5.598;2023-07-16T07:23:21;10.55;;;4.55;;
23716;SDS011;22094;52.130;5.598;2023-07-16T07:25:50;10.32;;;4.65;;
23716;SDS011;22094;52.130;5.598;2023-07-16T07:28:17;7.55;;;4.43;;
23716;SDS011;22094;52.130;5.598;2023-07-16T07:30:43;8.68;;;4.30;;
23716;SDS011;22094;52.130;5.598;2023-07-16T07:33:09;11.13;;;4.63;;
23716;SDS011;22094;52.130;5.598;2023-07-16T07:35:35;12.63;;;4.68;;
23716;SDS011;22094;52.130;5.598;2023-07-16T07:38:01;10.35;;;4.80;;
23716;SDS011;22094;52.130;5.598;2023-07-16T07:40:27;10.40;;;5.30;;
23716;SDS011;22094;52.130;5.598;2023-07-16T07:42:52;9.55;;;4.60;;
23716;SDS011;22094;52.130;5.598;2023-07-16T07:45:18;9.93;;;4.90;;
23716;SDS011;22094;52.130;5.598;2023-07-16T07:47:44;14.90;;;4.97;;
23716;SDS011;22094;52.130;5.598;2023-07-16T07:50:10;8.10;;;4.45;;
23716;SDS011;22094;52.130;5.598;2023-07-16T07:52:36;8.05;;;4.47;;
23716;SDS011;22094;52.130;5.598;2023-07-16T07:55:02;8.93;;;4.85;;
23716;SDS011;22094;52.130;5.598;2023-07-16T07:57:28;9.18;;;4.93;;
23716;SDS011;22094;52.130;5.598;2023-07-16T07:59:54;7.35;;;4.93;;
23716;SDS011;22094;52.130;5.598;2023-07-16T08:02:22;10.65;;;4.95;;
23716;SDS011;22094;52.130;5.598;2023-07-16T08:04:49;10.10;;;4.82;;
23716;SDS011;22094;52.130;5.598;2023-07-16T08:07:19;11.00;;;4.60;;
23716;SDS011;22094;52.130;5.598;2023-07-16T08:09:45;9.32;;;5.10;;
23716;SDS011;22094;52.130;5.598;2023-07-16T08:12:11;7.70;;;4.88;;
23716;SDS011;22094;52.130;5.598;2023-07-16T08:14:37;12.73;;;5.25;;
23716;SDS011;22094;52.130;5.598;2023-07-16T08:17:03;7.13;;;4.80;;
23716;SDS011;22094;52.130;5.598;2023-07-16T08:19:30;10.40;;;5.10;;
23716;SDS011;22094;52.130;5.598;2023-07-16T08:21:56;12.68;;;5.10;;
23716;SDS011;22094;52.130;5.598;2023-07-16T08:24:21;9.70;;;5.00;;
23716;SDS011;22094;52.130;5.598;2023-07-16T08:26:47;10.05;;;5.38;;
23716;SDS011;22094;52.130;5.598;2023-07-16T08:29:13;11.18;;;5.13;;
23716;SDS011;22094;52.130;5.598;2023-07-16T08:31:39;7.63;;;4.90;;
23716;SDS011;22094;52.130;5.598;2023-07-16T08:34:05;11.10;;;5.50;;
23716;SDS011;22094;52.130;5.598;2023-07-16T08:36:32;14.05;;;5.60;;
23716;SDS011;22094;52.130;5.598;2023-07-16T08:38:58;10.93;;;5.43;;
23716;SDS011;22094;52.130;5.598;2023-07-16T08:41:24;10.25;;;5.43;;
23716;SDS011;22094;52.130;5.598;2023-07-16T08:43:50;12.90;;;5.53;;
23716;SDS011;22094;52.130;5.598;2023-07-16T08:46:16;10.07;;;5.78;;
23716;SDS011;22094;52.130;5.598;2023-07-16T08:48:42;14.20;;;5.82;;
23716;SDS011;22094;52.130;5.598;2023-07-16T08:51:09;9.65;;;5.38;;
23716;SDS011;22094;52.130;5.598;2023-07-16T08:53:35;12.15;;;5.75;;
23716;SDS011;22094;52.130;5.598;2023-07-16T08:56:01;9.02;;;5.47;;
23716;SDS011;22094;52.130;5.598;2023-07-16T08:58:30;12.98;;;5.72;;
23716;SDS011;22094;52.130;5.598;2023-07-16T09:00:56;9.38;;;5.43;;
23716;SDS011;22094;52.130;5.598;2023-07-16T09:03:23;8.95;;;5.75;;
23716;SDS011;22094;52.130;5.598;2023-07-16T09:05:49;13.55;;;6.30;;
23716;SDS011;22094;52.130;5.598;2023-07-16T09:08:15;14.52;;;6.38;;
23716;SDS011;22094;52.130;5.598;2023-07-16T09:10:41;12.68;;;5.82;;
23716;SDS011;22094;52.130;5.598;2023-07-16T09:13:07;13.05;;;6.20;;
23716;SDS011;22094;52.130;5.598;2023-07-16T09:15:33;10.55;;;5.57;;
23716;SDS011;22094;52.130;5.598;2023-07-16T09:17:59;11.50;;;5.72;;
23716;SDS011;22094;52.130;5.598;2023-07-16T09:20:25;12.75;;;5.93;;
23716;SDS011;22094;52.130;5.598;2023-07-16T09:22:55;13.13;;;6.18;;
23716;SDS011;22094;52.130;5.598;2023-07-16T09:25:28;12.15;;;5.78;;
23716;SDS011;22094;52.130;5.598;2023-07-16T09:27:54;11.23;;;5.97;;
23716;SDS011;22094;52.130;5.598;2023-07-16T09:30:20;13.98;;;7.63;;
23716;SDS011;22094;52.130;5.598;2023-07-16T09:32:46;9.80;;;5.55;;
23716;SDS011;22094;52.130;5.598;2023-07-16T09:35:13;10.68;;;6.00;;
23716;SDS011;22094;52.130;5.598;2023-07-16T09:37:40;12.48;;;6.30;;
23716;SDS011;22094;52.130;5.598;2023-07-16T09:40:07;12.57;;;6.45;;
23716;SDS011;22094;52.130;5.598;2023-07-16T09:42:41;11.93;;;5.95;;
23716;SDS011;22094;52.130;5.598;2023-07-16T09:45:12;10.30;;;5.78;;
23716;SDS011;22094;52.130;5.598;2023-07-16T09:47:42;9.13;;;5.47;;
23716;SDS011;22094;52.130;5.598;2023-07-16T09:50:08;10.45;;;4.93;;
23716;SDS011;22094;52.130;5.598;2023-07-16T09:52:36;11.77;;;5.25;;
23716;SDS011;22094;52.130;5.598;2023-07-16T09:55:03;11.00;;;4.88;;
23716;SDS011;22094;52.130;5.598;2023-07-16T09:57:32;7.93;;;4.47;;
23716;SDS011;22094;52.130;5.598;2023-07-16T10:00:00;9.65;;;4.82;;
23716;SDS011;22094;52.130;5.598;2023-07-16T10:02:33;8.50;;;5.18;;
23716;SDS011;22094;52.130;5.598;2023-07-16T10:05:10;7.43;;;4.63;;
23716;SDS011;22094;52.130;5.598;2023-07-16T10:07:40;10.70;;;5.05;;
23716;SDS011;22094;52.130;5.598;2023-07-16T10:10:09;9.23;;;5.25;;
23716;SDS011;22094;52.130;5.598;2023-07-16T10:12:36;12.10;;;5.38;;
23716;SDS011;22094;52.130;5.598;2023-07-16T10:15:02;9.10;;;4.80;;
23716;SDS011;22094;52.130;5.598;2023-07-16T10:17:30;10.23;;;4.95;;
23716;SDS011;22094;52.130;5.598;2023-07-16T10:22:32;11.68;;;5.88;;
23716;SDS011;22094;52.130;5.598;2023-07-16T10:27:32;9.50;;;5.10;;
23716;SDS011;22094;52.130;5.598;2023-07-16T10:29:59;12.13;;;5.30;;
23716;SDS011;22094;52.130;5.598;2023-07-16T10:32:30;12.52;;;5.50;;
23716;SDS011;22094;52.130;5.598;2023-07-16T10:34:57;10.90;;;4.80;;
23716;SDS011;22094;52.130;5.598;2023-07-16T10:37:23;10.57;;;5.20;;
23716;SDS011;22094;52.130;5.598;2023-07-16T10:39:49;12.07;;;5.15;;
23716;SDS011;22094;52.130;5.598;2023-07-16T10:42:22;11.55;;;4.95;;
23716;SDS011;22094;52.130;5.598;2023-07-16T10:44:53;13.15;;;5.38;;
23716;SDS011;22094;52.130;5.598;2023-07-16T10:47:28;10.00;;;5.70;;
23716;SDS011;22094;52.130;5.598;2023-07-16T10:49:58;8.38;;;4.88;;
23716;SDS011;22094;52.130;5.598;2023-07-16T10:52:25;10.57;;;5.32;;
23716;SDS011;22094;52.130;5.598;2023-07-16T10:54:52;14.05;;;5.38;;
23716;SDS011;22094;52.130;5.598;2023-07-16T10:57:22;10.13;;;5.20;;
23716;SDS011;22094;52.130;5.598;2023-07-16T10:59:50;12.68;;;5.78;;
23716;SDS011;22094;52.130;5.598;2023-07-16T11:02:16;8.25;;;5.28;;
23716;SDS011;22094;52.130;5.598;2023-07-16T11:04:43;10.50;;;5.20;;
23716;SDS011;22094;52.130;5.598;2023-07-16T11:07:10;12.98;;;5.45;;
23716;SDS011;22094;52.130;5.598;2023-07-16T11:12:16;9.02;;;5.57;;
23716;SDS011;22094;52.130;5.598;2023-07-16T11:14:49;10.48;;;5.25;;
23716;SDS011;22094;52.130;5.598;2023-07-16T11:17:16;12.35;;;5.32;;
23716;SDS011;22094;52.130;5.598;2023-07-16T11:19:46;9.20;;;5.18;;
23716;SDS011;22094;52.130;5.598;2023-07-16T11:22:13;10.27;;;5.55;;
23716;SDS011;22094;52.130;5.598;2023-07-16T11:24:50;12.05;;;5.07;;
23716;SDS011;22094;52.130;5.598;2023-07-16T11:27:16;9.88;;;4.95;;
23716;SDS011;22094;52.130;5.598;2023-07-16T11:29:51;8.77;;;4.70;;
23716;SDS011;22094;52.130;5.598;2023-07-16T11:34:59;9.68;;;4.15;;
23716;SDS011;22094;52.130;5.598;2023-07-16T11:37:33;9.50;;;4.45;;
23716;SDS011;22094;52.130;5.598;2023-07-16T11:40:03;9.30;;;4.43;;
23716;SDS011;22094;52.130;5.598;2023-07-16T11:42:30;7.35;;;4.55;;
23716;SDS011;22094;52.130;5.598;2023-07-16T11:44:58;8.68;;;4.25;;
23716;SDS011;22094;52.130;5.598;2023-07-16T11:47:25;10.45;;;4.50;;
23716;SDS011;22094;52.130;5.598;2023-07-16T11:49:51;7.35;;;4.68;;
23716;SDS011;22094;52.130;5.598;2023-07-16T11:52:20;7.25;;;4.53;;
23716;SDS011;22094;52.130;5.598;2023-07-16T11:54:48;10.63;;;4.82;;
23716;SDS011;22094;52.130;5.598;2023-07-16T11:57:14;9.25;;;5.40;;
23716;SDS011;22094;52.130;5.598;2023-07-16T11:59:41;11.25;;;5.60;;
23716;SDS011;22094;52.130;5.598;2023-07-16T12:05:18;7.20;;;5.07;;
23716;SDS011;22094;52.130;5.598;2023-07-16T12:07:45;11.35;;;5.72;;
23716;SDS011;22094;52.130;5.598;2023-07-16T12:10:11;7.97;;;5.72;;
23716;SDS011;22094;52.130;5.598;2023-07-16T12:12:37;12.45;;;5.40;;
23716;SDS011;22094;52.130;5.598;2023-07-16T12:15:03;10.80;;;5.55;;
23716;SDS011;22094;52.130;5.598;2023-07-16T12:17:29;13.82;;;5.55;;
23716;SDS011;22094;52.130;5.598;2023-07-16T12:19:55;9.95;;;5.03;;
23716;SDS011;22094;52.130;5.598;2023-07-16T12:22:21;10.30;;;5.00;;
23716;SDS011;22094;52.130;5.598;2023-07-16T12:24:47;6.63;;;4.55;;
23716;SDS011;22094;52.130;5.598;2023-07-16T12:27:18;8.15;;;4.80;;
23716;SDS011;22094;52.130;5.598;2023-07-16T12:29:43;7.30;;;3.95;;
23716;SDS011;22094;52.130;5.598;2023-07-16T12:32:09;5.90;;;4.15;;
23716;SDS011;22094;52.130;5.598;2023-07-16T12:34:36;5.75;;;3.67;;
23716;SDS011;22094;52.130;5.598;2023-07-16T12:37:02;7.03;;;4.18;;
23716;SDS011;22094;52.130;5.598;2023-07-16T12:39:28;7.13;;;4.10;;
23716;SDS011;22094;52.130;5.598;2023-07-16T12:41:54;7.25;;;4.72;;
23716;SDS011;22094;52.130;5.598;2023-07-16T12:44:19;7.85;;;4.20;;
23716;SDS011;22094;52.130;5.598;2023-07-16T12:46:45;5.35;;;3.70;;
23716;SDS011;22094;52.130;5.598;2023-07-16T12:49:11;8.20;;;3.83;;
23716;SDS011;22094;52.130;5.598;2023-07-16T12:51:37;4.45;;;3.20;;
23716;SDS011;22094;52.130;5.598;2023-07-16T12:54:02;4.60;;;3.42;;
23716;SDS011;22094;52.130;5.598;2023-07-16T12:56:28;7.07;;;3.20;;
23716;SDS011;22094;52.130;5.598;2023-07-16T12:58:55;4.78;;;3.25;;
23716;SDS011;22094;52.130;5.598;2023-07-16T13:01:21;4.68;;;2.95;;
23716;SDS011;22094;52.130;5.598;2023-07-16T13:03:47;3.70;;;3.08;;
23716;SDS011;22094;52.130;5.598;2023-07-16T13:06:13;6.50;;;3.22;;
23716;SDS011;22094;52.130;5.598;2023-07-16T13:08:39;5.78;;;3.00;;
23716;SDS011;22094;52.130;5.598;2023-07-16T13:11:04;3.85;;;2.90;;
23716;SDS011;22094;52.130;5.598;2023-07-16T13:13:30;4.53;;;2.45;;
23716;SDS011;22094;52.130;5.598;2023-07-16T13:15:56;4.78;;;2.50;;
23716;SDS011;22094;52.130;5.598;2023-07-16T13:18:22;3.40;;;2.40;;
23716;SDS011;22094;52.130;5.598;2023-07-16T13:20:48;4.13;;;1.85;;
23716;SDS011;22094;52.130;5.598;2023-07-16T13:23:14;3.83;;;1.95;;
23716;SDS011;22094;52.130;5.598;2023-07-16T13:25:40;4.18;;;2.10;;
23716;SDS011;22094;52.130;5.598;2023-07-16T13:28:06;4.90;;;2.55;;
23716;SDS011;22094;52.130;5.598;2023-07-16T13:30:32;5.25;;;2.55;;
23716;SDS011;22094;52.130;5.598;2023-07-16T13:32:58;6.18;;;2.10;;
23716;SDS011;22094;52.130;5.598;2023-07-16T13:35:24;6.47;;;2.42;;
23716;SDS011;22094;52.130;5.598;2023-07-16T13:37:50;3.45;;;2.20;;
23716;SDS011;22094;52.130;5.598;2023-07-16T13:40:16;3.83;;;2.05;;
23716;SDS011;22094;52.130;5.598;2023-07-16T13:42:45;5.68;;;2.05;;
23716;SDS011;22094;52.130;5.598;2023-07-16T13:45:11;3.67;;;1.80;;
23716;SDS011;22094;52.130;5.598;2023-07-16T13:47:37;4.97;;;2.17;;
23716;SDS011;22094;52.130;5.598;2023-07-16T13:50:03;3.63;;;2.10;;
23716;SDS011;22094;52.130;5.598;2023-07-16T13:52:29;4.63;;;2.40;;
23716;SDS011;22094;52.130;5.598;2023-07-16T13:54:55;8.23;;;3.10;;
23716;SDS011;22094;52.130;5.598;2023-07-16T13:57:21;8.88;;;2.65;;
23716;SDS011;22094;52.130;5.598;2023-07-16T13:59:47;4.82;;;2.20;;
23716;SDS011;22094;52.130;5.598;2023-07-16T14:02:12;4.05;;;2.08;;
23716;SDS011;22094;52.130;5.598;2023-07-16T14:04:38;3.83;;;2.53;;
23716;SDS011;22094;52.130;5.598;2023-07-16T14:07:04;3.90;;;2.17;;
23716;SDS011;22094;52.130;5.598;2023-07-16T14:09:30;5.03;;;2.33;;
23716;SDS011;22094;52.130;5.598;2023-07-16T14:11:56;3.92;;;2.15;;
23716;SDS011;22094;52.130;5.598;2023-07-16T14:14:22;4.25;;;2.30;;
23716;SDS011;22094;52.130;5.598;2023-07-16T14:16:48;4.50;;;2.67;;
23716;SDS011;22094;52.130;5.598;2023-07-16T14:19:13;4.32;;;2.40;;
23716;SDS011;22094;52.130;5.598;2023-07-16T14:21:39;3.97;;;2.28;;
23716;SDS011;22094;52.130;5.598;2023-07-16T14:24:05;8.95;;;2.55;;
23716;SDS011;22094;52.130;5.598;2023-07-16T14:26:31;4.75;;;2.10;;
23716;SDS011;22094;52.130;5.598;2023-07-16T14:28:58;3.88;;;1.90;;
23716;SDS011;22094;52.130;5.598;2023-07-16T14:31:24;5.68;;;1.90;;
23716;SDS011;22094;52.130;5.598;2023-07-16T14:33:50;7.28;;;1.67;;
23716;SDS011;22094;52.130;5.598;2023-07-16T14:36:16;4.40;;;1.85;;
23716;SDS011;22094;52.130;5.598;2023-07-16T14:38:42;2.72;;;1.60;;
23716;SDS011;22094;52.130;5.598;2023-07-16T14:41:08;4.70;;;1.50;;
23716;SDS011;22094;52.130;5.598;2023-07-16T14:43:33;5.93;;;1.50;;
23716;SDS011;22094;52.130;5.598;2023-07-16T14:45:59;5.45;;;1.95;;
23716;SDS011;22094;52.130;5.598;2023-07-16T14:48:25;3.28;;;1.63;;
23716;SDS011;22094;52.130;5.598;2023-07-16T14:50:52;5.05;;;1.60;;
23716;SDS011;22094;52.130;5.598;2023-07-16T14:53:18;4.18;;;1.58;;
23716;SDS011;22094;52.130;5.598;2023-07-16T14:55:50;3.88;;;1.50;;